createdAt,value
2018-06-07T00:00:57.394Z,20.30
2018-06-07T00:03:26.921Z,20.20
2018-06-07T00:17:47.851Z,20.00
2018-06-07T00:20:17.268Z,19.90
2018-06-07T00:22:46.652Z,19.90
2018-06-07T00:25:16.102Z,19.90
2018-06-07T00:27:45.500Z,19.90
2018-06-07T00:30:14.987Z,19.80
2018-06-07T00:32:44.374Z,19.80
2018-06-07T00:35:13.827Z,19.70
2018-06-07T00:37:42.978Z,19.70
2018-06-07T00:40:12.450Z,19.60
2018-06-07T00:42:41.897Z,19.60
2018-06-07T00:45:11.067Z,19.60
2018-06-07T00:47:40.450Z,19.40
2018-06-07T00:50:10.294Z,19.50
2018-06-07T00:52:39.698Z,19.50
2018-06-07T00:55:09.165Z,19.40
2018-06-07T00:57:38.593Z,19.50
2018-06-07T01:00:08.060Z,19.50
2018-06-07T01:02:37.184Z,19.40
2018-06-07T01:05:06.575Z,19.40
2018-06-07T01:07:36.080Z,19.30
2018-06-07T01:10:05.838Z,19.30
2018-06-07T01:12:35.303Z,19.20
2018-06-07T01:15:04.706Z,19.20
2018-06-07T01:17:34.135Z,19.10
2018-06-07T01:20:03.800Z,19.10
2018-06-07T01:22:33.285Z,19.10
2018-06-07T01:25:02.854Z,19.10
2018-06-07T01:27:41.645Z,19.00
2018-06-07T01:30:27.461Z,19.00
2018-06-07T01:33:27.793Z,19.00
2018-06-07T01:35:58.380Z,19.10
2018-06-07T01:38:39.141Z,19.00
2018-06-07T01:41:08.880Z,19.00
2018-06-07T01:43:38.351Z,18.90
2018-06-07T01:46:07.751Z,18.90
2018-06-07T01:48:37.211Z,18.90
2018-06-07T01:51:06.948Z,18.80
2018-06-07T01:53:36.387Z,18.80
2018-06-07T01:56:05.472Z,18.80
2018-06-07T01:58:34.972Z,18.90
2018-06-07T02:01:04.397Z,18.70
2018-06-07T02:03:33.884Z,18.70
2018-06-07T02:06:03.293Z,18.60
2018-06-07T02:08:32.694Z,18.60
2018-06-07T02:11:02.117Z,18.50
2018-06-07T02:13:31.586Z,18.50
2018-06-07T02:16:00.996Z,18.60
2018-06-07T02:18:30.452Z,18.50
2018-06-07T02:20:59.868Z,18.50
2018-06-07T02:23:29.353Z,18.60
2018-06-07T02:25:58.754Z,18.50
2018-06-07T02:28:28.171Z,18.50
2018-06-07T02:30:57.531Z,18.50
2018-06-07T02:33:27.024Z,18.60
2018-06-07T02:35:56.417Z,18.50
2018-06-07T02:38:25.881Z,18.60
2018-06-07T02:40:55.265Z,18.60
2018-06-07T02:43:24.729Z,18.70
2018-06-07T02:45:54.094Z,18.70
2018-06-07T02:48:23.525Z,18.70
2018-06-07T02:50:52.937Z,18.70
2018-06-07T02:53:22.392Z,18.60
2018-06-07T02:55:51.798Z,18.70
2018-06-07T02:58:21.181Z,18.70
2018-06-07T03:00:50.596Z,18.80
2018-06-07T03:03:20.031Z,18.90
2018-06-07T03:05:49.121Z,19.00
2018-06-07T03:08:18.911Z,18.90
2018-06-07T03:10:48.236Z,18.90
2018-06-07T03:13:17.744Z,18.80
2018-06-07T03:15:47.165Z,18.80
2018-06-07T03:18:17.007Z,18.60
2018-06-07T03:20:46.376Z,18.70
2018-06-07T03:23:15.818Z,18.60
2018-06-07T03:25:45.217Z,18.50
2018-06-07T03:28:14.693Z,18.50
2018-06-07T03:30:44.125Z,18.60
2018-06-07T03:33:13.641Z,18.60
2018-06-07T03:35:43.076Z,18.50
2018-06-07T03:38:12.533Z,18.50
2018-06-07T03:40:41.962Z,18.50
2018-06-07T03:43:11.417Z,18.40
2018-06-07T03:45:40.822Z,18.30
2018-06-07T03:48:14.021Z,18.30
2018-06-07T03:50:43.393Z,18.50
2018-06-07T03:53:12.836Z,18.80
2018-06-07T03:55:42.262Z,18.90
2018-06-07T03:58:11.522Z,18.90
2018-06-07T04:00:40.943Z,18.90
2018-06-07T04:03:11.498Z,18.80
2018-06-07T04:05:40.876Z,18.80
2018-06-07T04:08:10.275Z,18.70
2018-06-07T04:10:39.677Z,18.60
2018-06-07T04:13:09.187Z,18.70
2018-06-07T04:15:38.542Z,18.80
2018-06-07T04:18:07.984Z,18.80
2018-06-07T04:20:37.330Z,18.80
2018-06-07T04:23:06.781Z,18.70
2018-06-07T04:25:36.213Z,18.90
2018-06-07T04:28:05.667Z,18.80
2018-06-07T04:30:35.118Z,18.80
2018-06-07T04:33:04.911Z,18.90
2018-06-07T04:35:34.252Z,18.90
2018-06-07T04:38:03.840Z,18.90
2018-06-07T04:40:33.125Z,18.90
2018-06-07T04:43:02.576Z,18.90
2018-06-07T04:45:34.375Z,18.90
2018-06-07T04:48:04.006Z,18.90
2018-06-07T04:50:35.348Z,18.90
2018-06-07T04:55:37.151Z,19.00
2018-06-07T04:58:08.417Z,19.10
2018-06-07T05:03:11.506Z,19.40
2018-06-07T05:08:40.876Z,19.50
2018-06-07T05:11:12.461Z,19.50
2018-06-07T05:13:42.695Z,19.60
2018-06-07T05:16:13.143Z,19.60
2018-06-07T05:18:44.101Z,19.60
2018-06-07T05:21:15.334Z,19.70
2018-06-07T05:23:48.395Z,19.80
2018-06-07T05:26:19.713Z,19.80
2018-06-07T05:28:51.674Z,19.90
2018-06-07T05:31:23.768Z,19.90
2018-06-07T05:33:55.985Z,20.00
2018-06-07T05:36:27.959Z,20.00
2018-06-07T05:39:00.817Z,20.20
2018-06-07T05:41:32.837Z,20.20
2018-06-07T05:46:35.522Z,20.40
2018-06-07T05:49:07.299Z,20.60
2018-06-07T05:51:39.472Z,20.70
2018-06-07T05:54:11.371Z,20.70
2018-06-07T05:56:43.271Z,20.80
2018-06-07T05:59:15.998Z,21.00
2018-06-07T06:01:48.333Z,21.10
2018-06-07T06:04:18.814Z,21.30
2018-06-07T06:06:49.709Z,21.40
2018-06-07T06:09:21.019Z,21.40
2018-06-07T06:11:52.630Z,21.40
2018-06-07T06:14:25.676Z,21.50
2018-06-07T06:16:55.255Z,21.60
2018-06-07T06:19:24.647Z,21.60
2018-06-07T06:21:54.394Z,21.70
2018-06-07T06:24:23.861Z,21.70
2018-06-07T06:26:53.273Z,21.70
2018-06-07T06:29:22.659Z,21.80
2018-06-07T06:31:52.053Z,21.90
2018-06-07T06:34:21.498Z,21.90
2018-06-07T06:36:50.880Z,22.00
2018-06-07T06:39:20.276Z,22.00
2018-06-07T06:41:49.764Z,22.00
2018-06-07T06:44:19.159Z,22.10
2018-06-07T06:46:48.613Z,22.10
2018-06-07T06:49:18.084Z,22.20
2018-06-07T06:51:47.733Z,22.20
2018-06-07T06:54:17.182Z,22.30
2018-06-07T06:56:46.684Z,22.30
2018-06-07T06:59:16.319Z,22.30
2018-06-07T07:01:45.876Z,22.40
2018-06-07T07:04:15.277Z,22.40
2018-06-07T07:06:44.984Z,22.40
2018-06-07T07:09:14.414Z,22.50
2018-06-07T07:11:43.991Z,22.70
2018-06-07T07:14:13.502Z,22.80
2018-06-07T07:16:42.956Z,22.80
2018-06-07T07:19:12.346Z,22.90
2018-06-07T07:21:41.770Z,22.90
2018-06-07T07:24:11.161Z,23.10
2018-06-07T07:26:40.647Z,23.30
2018-06-07T07:29:10.000Z,23.50
2018-06-07T07:31:39.557Z,23.60
2018-06-07T07:34:08.993Z,23.70
2018-06-07T07:36:38.409Z,23.80
2018-06-07T07:39:08.032Z,23.90
2018-06-07T07:41:37.470Z,24.20
2018-06-07T07:44:06.877Z,24.30
2018-06-07T07:46:36.405Z,24.40
2018-06-07T07:49:05.782Z,24.50
2018-06-07T07:51:35.188Z,24.60
2018-06-07T07:54:04.694Z,24.60
2018-06-07T07:56:34.102Z,24.60
2018-06-07T07:59:03.627Z,24.70
2018-06-07T08:01:32.976Z,24.90
2018-06-07T08:04:02.458Z,25.00
2018-06-07T08:06:31.800Z,25.30
2018-06-07T08:09:01.312Z,25.40
2018-06-07T08:11:30.702Z,25.50
2018-06-07T08:14:00.165Z,25.60
2018-06-07T08:16:29.556Z,25.50
2018-06-07T08:18:59.076Z,25.50
2018-06-07T08:21:28.450Z,25.60
2018-06-07T08:23:57.891Z,25.60
2018-06-07T08:26:27.294Z,25.80
2018-06-07T08:28:56.728Z,26.00
2018-06-07T08:31:26.240Z,26.20
2018-06-07T08:33:55.613Z,26.30
2018-06-07T08:36:25.107Z,26.50
2018-06-07T08:38:54.637Z,26.80
2018-06-07T08:41:24.022Z,26.90
2018-06-07T08:43:53.425Z,27.00
2018-06-07T08:46:22.795Z,27.00
2018-06-07T08:48:52.257Z,27.10
2018-06-07T08:51:21.642Z,27.20
2018-06-07T08:53:51.216Z,27.20
2018-06-07T08:56:20.661Z,27.10
2018-06-07T08:58:50.050Z,27.00
2018-06-07T09:01:19.487Z,27.20
2018-06-07T09:03:48.847Z,27.50
2018-06-07T09:06:18.861Z,27.90
2018-06-07T09:08:48.274Z,28.10
2018-06-07T09:11:18.288Z,28.20
2018-06-07T09:13:48.048Z,28.40
2018-06-07T09:16:17.590Z,28.40
2018-06-07T09:18:46.998Z,28.20
2018-06-07T09:21:16.848Z,28.40
2018-06-07T09:23:46.237Z,28.50
2018-06-07T09:26:15.740Z,28.60
2018-06-07T09:28:45.109Z,28.60
2018-06-07T09:31:14.971Z,28.50
2018-06-07T09:33:44.341Z,28.40
2018-06-07T09:36:13.855Z,28.40
2018-06-07T09:38:43.205Z,28.70
2018-06-07T09:41:12.635Z,29.20
2018-06-07T09:43:42.758Z,29.40
2018-06-07T09:46:12.144Z,29.40
2018-06-07T09:51:10.967Z,29.70
2018-06-07T09:53:40.448Z,29.30
2018-06-07T09:56:09.808Z,29.00
2018-06-07T09:58:39.271Z,28.90
2018-06-07T10:01:08.681Z,29.00
2018-06-07T10:03:38.240Z,29.20
2018-06-07T10:06:07.773Z,29.30
2018-06-07T10:08:37.519Z,29.30
2018-06-07T10:11:06.934Z,29.80
2018-06-07T10:13:36.290Z,30.50
2018-06-07T10:16:05.817Z,30.80
2018-06-07T10:18:35.246Z,30.60
2018-06-07T10:21:04.709Z,30.30
2018-06-07T10:23:34.049Z,30.00
2018-06-07T10:26:04.121Z,29.60
2018-06-07T10:28:33.468Z,29.70
2018-06-07T10:31:03.232Z,29.90
2018-06-07T10:33:32.622Z,29.90
2018-06-07T10:36:02.062Z,30.00
2018-06-07T10:38:31.437Z,30.00
2018-06-07T10:41:00.850Z,30.60
2018-06-07T10:43:30.226Z,31.10
2018-06-07T10:46:00.114Z,31.00
2018-06-07T10:48:30.022Z,30.80
2018-06-07T10:50:59.447Z,30.80
2018-06-07T10:53:28.799Z,30.80
2018-06-07T10:55:58.248Z,30.90
2018-06-07T10:58:28.304Z,30.70
2018-06-07T11:00:57.751Z,30.90
2018-06-07T11:03:28.187Z,31.10
2018-06-07T11:05:58.094Z,31.00
2018-06-07T11:08:27.507Z,30.80
2018-06-07T11:10:57.326Z,30.90
2018-06-07T11:13:26.817Z,31.30
2018-06-07T11:15:56.193Z,31.10
2018-06-07T11:18:26.090Z,30.80
2018-06-07T11:20:55.595Z,30.70
2018-06-07T11:23:24.982Z,30.80
2018-06-07T11:25:54.417Z,30.70
2018-06-07T11:28:23.776Z,30.60
2018-06-07T11:30:53.245Z,30.80
2018-06-07T11:33:23.528Z,31.10
2018-06-07T11:35:52.908Z,31.70
2018-06-07T11:38:22.582Z,32.10
2018-06-07T11:40:52.092Z,32.10
2018-06-07T11:43:21.681Z,31.90
2018-06-07T11:45:51.077Z,32.00
2018-06-07T11:48:21.423Z,32.40
2018-06-07T11:50:50.841Z,32.50
2018-06-07T11:53:20.228Z,31.90
2018-06-07T11:55:49.709Z,31.90
2018-06-07T11:58:19.090Z,31.70
2018-06-07T12:00:48.543Z,31.10
2018-06-07T12:03:18.316Z,30.60
2018-06-07T12:05:47.807Z,30.70
2018-06-07T12:08:17.304Z,30.90
2018-06-07T12:10:46.542Z,31.00
2018-06-07T12:13:16.421Z,30.80
2018-06-07T12:15:45.877Z,30.90
2018-06-07T12:18:15.281Z,31.00
2018-06-07T12:20:45.427Z,31.00
2018-06-07T12:23:15.023Z,30.80
2018-06-07T12:25:44.404Z,31.00
2018-06-07T12:28:13.786Z,31.10
2018-06-07T12:30:43.186Z,31.00
2018-06-07T12:33:12.571Z,30.70
2018-06-07T12:35:41.971Z,30.70
2018-06-07T12:38:11.381Z,30.30
2018-06-07T12:40:40.762Z,30.80
2018-06-07T12:43:10.214Z,31.30
2018-06-07T12:45:39.591Z,31.80
2018-06-07T12:48:09.032Z,32.60
2018-06-07T12:50:39.236Z,33.10
2018-06-07T12:53:08.624Z,33.20
2018-06-07T12:55:38.072Z,32.80
2018-06-07T12:58:07.440Z,32.60
2018-06-07T13:00:37.064Z,32.40
2018-06-07T13:03:06.632Z,32.60
2018-06-07T13:05:36.129Z,32.60
2018-06-07T13:08:05.481Z,32.40
2018-06-07T13:10:34.946Z,32.50
2018-06-07T13:13:04.298Z,32.90
2018-06-07T13:15:33.841Z,32.70
2018-06-07T13:18:03.366Z,32.80
2018-06-07T13:20:33.544Z,32.60
2018-06-07T13:23:03.706Z,33.20
2018-06-07T13:25:33.863Z,33.40
2018-06-07T13:28:03.471Z,33.60
2018-06-07T13:30:32.830Z,33.30
2018-06-07T13:33:12.971Z,33.20
2018-06-07T13:35:42.929Z,32.80
2018-06-07T13:38:12.350Z,32.40
2018-06-07T13:40:41.740Z,32.20
2018-06-07T13:43:11.214Z,32.30
2018-06-07T13:45:40.624Z,32.50
2018-06-07T13:48:10.010Z,32.70
2018-06-07T13:50:39.517Z,32.80
2018-06-07T13:53:09.000Z,32.90
2018-06-07T13:55:38.505Z,33.10
2018-06-07T13:58:08.440Z,33.40
2018-06-07T14:00:37.849Z,33.60
2018-06-07T14:03:07.476Z,33.60
2018-06-07T14:05:37.147Z,34.00
2018-06-07T14:10:35.553Z,34.30
2018-06-07T14:13:05.963Z,34.90
2018-06-07T14:15:35.461Z,34.80
2018-06-07T14:18:04.917Z,34.80
2018-06-07T14:20:34.327Z,34.80
2018-06-07T14:23:03.819Z,35.30
2018-06-07T14:25:33.223Z,35.80
2018-06-07T14:28:02.738Z,35.60
2018-06-07T14:30:32.516Z,35.60
2018-06-07T14:33:01.954Z,35.60
2018-06-07T14:35:31.340Z,35.40
2018-06-07T14:38:00.764Z,35.80
2018-06-07T14:40:30.599Z,36.20
2018-06-07T14:43:00.089Z,36.70
2018-06-07T14:45:29.573Z,36.10
2018-06-07T14:47:59.015Z,35.60
2018-06-07T14:50:28.397Z,35.10
2018-06-07T14:52:57.808Z,34.70
2018-06-07T14:55:28.330Z,34.10
2018-06-07T14:57:58.060Z,33.30
2018-06-07T15:00:27.506Z,32.70
2018-06-07T15:02:56.893Z,32.30
2018-06-07T15:05:26.341Z,32.00
2018-06-07T15:07:55.769Z,31.80
2018-06-07T15:10:25.218Z,31.20
2018-06-07T15:12:54.610Z,31.00
2018-06-07T15:15:25.542Z,30.80
2018-06-07T15:17:54.953Z,30.60
2018-06-07T15:20:24.385Z,30.30
2018-06-07T15:22:53.764Z,30.00
2018-06-07T15:25:23.152Z,29.70
2018-06-07T15:27:52.642Z,29.50
2018-06-07T15:30:22.333Z,28.80
2018-06-07T15:32:51.931Z,28.40
2018-06-07T15:35:21.423Z,28.20
2018-06-07T15:37:51.125Z,27.70
2018-06-07T15:40:20.673Z,27.40
2018-06-07T15:42:50.888Z,26.90
2018-06-07T15:45:20.319Z,26.70
2018-06-07T15:47:49.698Z,26.90
2018-06-07T15:50:19.146Z,26.70
2018-06-07T15:52:48.911Z,26.00
2018-06-07T15:55:18.418Z,25.30
2018-06-07T15:57:47.793Z,24.70
2018-06-07T16:00:18.079Z,24.40
2018-06-07T16:02:48.428Z,24.10
2018-06-07T16:05:17.962Z,23.70
2018-06-07T16:07:48.557Z,23.60
2018-06-07T16:10:17.994Z,23.30
2018-06-07T16:12:47.380Z,23.10
2018-06-07T16:15:16.732Z,23.20
2018-06-07T16:17:46.145Z,23.20
2018-06-07T16:20:15.516Z,23.30
2018-06-07T16:22:45.684Z,23.40
2018-06-07T16:25:15.063Z,23.30
2018-06-07T16:27:44.536Z,23.20
2018-06-07T16:30:15.027Z,23.20
2018-06-07T16:32:44.480Z,23.20
2018-06-07T16:35:13.889Z,23.00
2018-06-07T16:37:43.345Z,22.70
2018-06-07T16:40:12.785Z,22.70
2018-06-07T16:42:42.317Z,22.50
2018-06-07T16:45:11.851Z,22.40
2018-06-07T16:47:41.243Z,22.40
2018-06-07T16:50:10.754Z,22.50
2018-06-07T16:52:40.138Z,22.70
2018-06-07T16:55:09.665Z,22.80
2018-06-07T16:57:39.042Z,22.60
2018-06-07T17:00:08.496Z,22.60
2018-06-07T17:02:37.926Z,22.40
2018-06-07T17:05:08.043Z,22.30
2018-06-07T17:07:37.670Z,22.20
2018-06-07T17:10:07.443Z,22.20
2018-06-07T17:12:36.793Z,22.20
2018-06-07T17:15:06.324Z,22.30
2018-06-07T17:20:04.964Z,22.50
2018-06-07T17:22:34.316Z,22.50
2018-06-07T17:25:04.034Z,22.40
2018-06-07T17:27:33.377Z,22.40
2018-06-07T17:30:03.183Z,22.30
2018-06-07T17:32:32.550Z,22.20
2018-06-07T17:35:02.082Z,22.20
2018-06-07T17:37:31.854Z,22.10
2018-06-07T17:40:01.277Z,22.00
2018-06-07T17:42:30.690Z,22.00
2018-06-07T17:45:00.113Z,21.90
2018-06-07T17:47:29.496Z,21.90
2018-06-07T17:49:58.992Z,21.80
2018-06-07T17:52:28.717Z,21.80
2018-06-07T17:54:58.163Z,21.80
2018-06-07T17:57:27.891Z,21.70
2018-06-07T17:59:57.319Z,21.70
2018-06-07T18:02:26.714Z,21.60
2018-06-07T18:04:56.164Z,21.60
2018-06-07T18:07:25.630Z,21.60
2018-06-07T18:09:55.224Z,21.60
2018-06-07T18:12:24.626Z,21.60
2018-06-07T18:14:54.510Z,21.60
2018-06-07T18:19:53.219Z,21.60
2018-06-07T18:22:22.914Z,21.50
2018-06-07T18:24:52.345Z,21.40
2018-06-07T18:27:22.046Z,21.30
2018-06-07T18:29:51.526Z,21.30
2018-06-07T18:35:26.374Z,21.10
2018-06-07T18:37:55.810Z,21.10
2018-06-07T18:40:25.276Z,21.10
2018-06-07T18:42:54.677Z,21.20
2018-06-07T18:45:24.096Z,21.20
2018-06-07T18:47:53.673Z,21.20
2018-06-07T18:50:23.147Z,21.30
2018-06-07T18:52:52.480Z,21.20
2018-06-07T18:55:21.948Z,21.20
2018-06-07T18:57:51.411Z,21.20
2018-06-07T19:00:20.922Z,21.10
2018-06-07T19:02:50.023Z,21.20
2018-06-07T19:07:49.264Z,21.20
2018-06-07T19:10:20.275Z,21.20
2018-06-07T19:12:50.704Z,21.20
2018-06-07T19:15:20.114Z,21.30
2018-06-07T19:17:49.636Z,21.10
2018-06-07T19:20:24.635Z,21.10
2018-06-07T19:22:53.977Z,21.10
2018-06-07T19:25:28.646Z,20.90
2018-06-07T19:27:58.074Z,20.90
2018-06-07T19:30:28.394Z,21.00
2018-06-07T19:34:01.614Z,20.90
2018-06-07T19:36:31.462Z,21.00
2018-06-07T19:39:05.844Z,20.90
2018-06-07T19:41:40.324Z,20.80
2018-06-07T19:44:09.896Z,20.70
2018-06-07T19:46:39.259Z,20.70
2018-06-07T19:52:06.838Z,20.70
2018-06-07T19:54:36.210Z,20.70
2018-06-07T19:57:06.034Z,20.60
2018-06-07T19:59:35.724Z,20.50
2018-06-07T20:02:05.498Z,20.50
2018-06-07T20:04:34.985Z,20.50
2018-06-07T20:07:04.354Z,20.60
2018-06-07T20:09:33.490Z,20.60
2018-06-07T20:14:32.268Z,20.50
2018-06-07T20:17:01.872Z,20.40
2018-06-07T20:19:31.924Z,20.40
2018-06-07T20:22:01.412Z,20.50
2018-06-07T20:24:31.127Z,20.50
2018-06-07T20:27:00.573Z,20.50
2018-06-07T20:29:30.014Z,20.50
2018-06-07T20:31:59.786Z,20.40
2018-06-07T20:34:29.240Z,20.40
2018-06-07T20:36:58.460Z,20.30
2018-06-07T20:39:27.841Z,20.30
2018-06-07T20:41:57.297Z,20.30
2018-06-07T20:44:26.453Z,20.30
2018-06-07T20:46:55.939Z,20.20
2018-06-07T20:49:25.440Z,20.20
2018-06-07T20:51:54.998Z,20.30
2018-06-07T20:54:24.409Z,20.20
2018-06-07T20:56:53.461Z,20.30
2018-06-07T20:59:22.901Z,20.30
2018-06-07T21:01:52.043Z,20.30
2018-06-07T21:04:21.456Z,20.30
2018-06-07T21:06:50.580Z,20.20
2018-06-07T21:09:19.814Z,20.30
2018-06-07T21:11:49.201Z,20.30
2018-06-07T21:14:18.433Z,20.20
2018-06-07T21:16:47.832Z,20.20
2018-06-07T21:19:17.236Z,20.20
2018-06-07T21:21:46.921Z,20.30
2018-06-07T21:24:16.074Z,20.20
2018-06-07T21:26:45.218Z,20.20
2018-06-07T21:29:14.685Z,20.30
2018-06-07T21:31:44.063Z,20.20
2018-06-07T21:34:13.154Z,20.30
2018-06-07T21:36:42.288Z,20.30
2018-06-07T21:39:11.385Z,20.40
2018-06-07T21:41:40.532Z,20.30
2018-06-07T21:44:09.971Z,20.30
2018-06-07T21:46:39.084Z,20.40
2018-06-07T21:49:08.238Z,20.40
2018-06-07T21:51:37.364Z,20.40
2018-06-07T21:54:06.564Z,20.40
2018-06-07T21:56:35.804Z,20.50
2018-06-07T21:59:05.162Z,20.40
2018-06-07T22:01:34.746Z,20.30
2018-06-07T22:04:03.965Z,20.20
2018-06-07T22:06:33.086Z,20.20
2018-06-07T22:09:02.369Z,20.20
2018-06-07T22:11:31.805Z,20.10
2018-06-07T22:14:01.000Z,20.00
2018-06-07T22:16:30.108Z,20.10
2018-06-07T22:18:59.334Z,20.00
2018-06-07T22:21:28.477Z,20.10
2018-06-07T22:23:57.558Z,20.10
2018-06-07T22:26:26.813Z,20.10
2018-06-07T22:28:55.932Z,20.00
2018-06-07T22:31:25.442Z,20.00
2018-06-07T22:33:54.645Z,20.00
2018-06-07T22:36:23.805Z,19.90
2018-06-07T22:38:53.059Z,20.00
2018-06-07T22:41:22.110Z,20.10
2018-06-07T22:43:51.285Z,20.10
2018-06-07T22:46:20.677Z,20.00
2018-06-07T22:48:49.759Z,19.90
2018-06-07T22:51:18.891Z,19.90
2018-06-07T22:53:47.989Z,19.90
2018-06-07T22:56:17.436Z,19.90
2018-06-07T22:58:46.629Z,19.90
2018-06-07T23:01:15.854Z,19.80
2018-06-07T23:03:45.272Z,19.80
2018-06-07T23:06:14.728Z,19.90
2018-06-07T23:08:43.840Z,19.80
2018-06-07T23:11:13.594Z,19.80
2018-06-07T23:13:42.705Z,19.80
2018-06-07T23:16:11.869Z,19.80
2018-06-07T23:18:41.238Z,19.90
2018-06-07T23:21:10.707Z,19.80
2018-06-07T23:23:40.113Z,19.80
2018-06-07T23:26:09.555Z,19.80
2018-06-07T23:28:38.925Z,19.80
2018-06-07T23:31:08.300Z,19.80
2018-06-07T23:33:37.811Z,19.70
2018-06-07T23:36:07.176Z,19.80
2018-06-07T23:38:36.605Z,19.80
2018-06-07T23:41:06.033Z,19.80
2018-06-07T23:43:35.429Z,19.80
2018-06-07T23:46:04.933Z,19.80
2018-06-07T23:48:34.324Z,19.80
2018-06-07T23:51:04.028Z,19.70
2018-06-07T23:53:33.368Z,19.70
2018-06-07T23:56:02.805Z,19.70
2018-06-07T23:58:32.200Z,19.60
